sensor_id;sensor_type;location;lat;lon;timestamp;P1;durP1;ratioP1;P2;durP2;ratioP2
43606;SDS011;29197;44.788;10.366;2023-12-20T00:02:36;8.27;;;4.77;;
43606;SDS011;29197;44.788;10.366;2023-12-20T00:05:25;7.47;;;4.93;;
43606;SDS011;29197;44.788;10.366;2023-12-20T00:08:14;9.30;;;4.90;;
43606;SDS011;29197;44.788;10.366;2023-12-20T00:11:03;7.50;;;4.30;;
43606;SDS011;29197;44.788;10.366;2023-12-20T00:13:53;7.87;;;4.47;;
43606;SDS011;29197;44.788;10.366;2023-12-20T00:16:42;8.80;;;5.07;;
43606;SDS011;29197;44.788;10.366;2023-12-20T00:19:31;8.77;;;4.73;;
43606;SDS011;29197;44.788;10.366;2023-12-20T00:22:20;9.60;;;4.80;;
43606;SDS011;29197;44.788;10.366;2023-12-20T00:25:09;10.03;;;4.83;;
43606;SDS011;29197;44.788;10.366;2023-12-20T00:27:58;5.87;;;3.47;;
43606;SDS011;29197;44.788;10.366;2023-12-20T00:30:48;7.03;;;3.57;;
43606;SDS011;29197;44.788;10.366;2023-12-20T00:33:37;5.80;;;3.80;;
43606;SDS011;29197;44.788;10.366;2023-12-20T00:36:30;5.70;;;4.00;;
43606;SDS011;29197;44.788;10.366;2023-12-20T00:39:19;7.80;;;3.80;;
43606;SDS011;29197;44.788;10.366;2023-12-20T00:42:08;5.13;;;3.47;;
43606;SDS011;29197;44.788;10.366;2023-12-20T00:44:58;6.17;;;3.73;;
43606;SDS011;29197;44.788;10.366;2023-12-20T00:47:48;5.40;;;4.03;;
43606;SDS011;29197;44.788;10.366;2023-12-20T00:50:37;4.47;;;3.53;;
43606;SDS011;29197;44.788;10.366;2023-12-20T00:53:26;6.83;;;3.97;;
43606;SDS011;29197;44.788;10.366;2023-12-20T00:56:15;6.23;;;3.67;;
43606;SDS011;29197;44.788;10.366;2023-12-20T00:59:04;6.83;;;4.33;;
43606;SDS011;29197;44.788;10.366;2023-12-20T01:01:53;5.30;;;3.73;;
43606;SDS011;29197;44.788;10.366;2023-12-20T01:04:43;6.50;;;3.40;;
43606;SDS011;29197;44.788;10.366;2023-12-20T01:07:32;3.87;;;3.37;;
43606;SDS011;29197;44.788;10.366;2023-12-20T01:10:21;7.87;;;4.03;;
43606;SDS011;29197;44.788;10.366;2023-12-20T01:13:09;5.33;;;3.73;;
43606;SDS011;29197;44.788;10.366;2023-12-20T01:15:58;5.67;;;3.50;;
43606;SDS011;29197;44.788;10.366;2023-12-20T01:18:48;5.90;;;3.70;;
43606;SDS011;29197;44.788;10.366;2023-12-20T01:21:39;6.07;;;3.83;;
43606;SDS011;29197;44.788;10.366;2023-12-20T01:24:27;6.53;;;3.73;;
43606;SDS011;29197;44.788;10.366;2023-12-20T01:27:16;6.63;;;4.27;;
43606;SDS011;29197;44.788;10.366;2023-12-20T01:30:05;6.53;;;3.60;;
43606;SDS011;29197;44.788;10.366;2023-12-20T01:32:55;6.07;;;3.70;;
43606;SDS011;29197;44.788;10.366;2023-12-20T01:35:44;6.33;;;3.60;;
43606;SDS011;29197;44.788;10.366;2023-12-20T01:38:34;6.90;;;3.97;;
43606;SDS011;29197;44.788;10.366;2023-12-20T01:41:23;5.33;;;3.60;;
43606;SDS011;29197;44.788;10.366;2023-12-20T01:44:11;6.13;;;3.50;;
43606;SDS011;29197;44.788;10.366;2023-12-20T01:47:00;5.30;;;3.57;;
43606;SDS011;29197;44.788;10.366;2023-12-20T01:49:50;7.03;;;3.93;;
43606;SDS011;29197;44.788;10.366;2023-12-20T01:52:39;5.53;;;3.50;;
43606;SDS011;29197;44.788;10.366;2023-12-20T01:55:31;6.63;;;3.50;;
43606;SDS011;29197;44.788;10.366;2023-12-20T01:58:20;5.93;;;3.60;;
43606;SDS011;29197;44.788;10.366;2023-12-20T02:01:10;4.33;;;3.47;;
43606;SDS011;29197;44.788;10.366;2023-12-20T02:03:59;7.10;;;3.97;;
43606;SDS011;29197;44.788;10.366;2023-12-20T02:06:49;8.17;;;4.63;;
43606;SDS011;29197;44.788;10.366;2023-12-20T02:09:40;7.47;;;3.60;;
43606;SDS011;29197;44.788;10.366;2023-12-20T02:12:31;5.90;;;3.60;;
43606;SDS011;29197;44.788;10.366;2023-12-20T02:15:20;6.30;;;3.27;;
43606;SDS011;29197;44.788;10.366;2023-12-20T02:18:09;4.33;;;3.00;;
43606;SDS011;29197;44.788;10.366;2023-12-20T02:21:03;6.47;;;4.07;;
43606;SDS011;29197;44.788;10.366;2023-12-20T02:23:53;6.50;;;3.30;;
43606;SDS011;29197;44.788;10.366;2023-12-20T02:26:42;5.77;;;3.47;;
43606;SDS011;29197;44.788;10.366;2023-12-20T02:29:33;9.77;;;4.40;;
43606;SDS011;29197;44.788;10.366;2023-12-20T02:32:22;5.53;;;3.93;;
43606;SDS011;29197;44.788;10.366;2023-12-20T02:35:12;5.83;;;3.83;;
43606;SDS011;29197;44.788;10.366;2023-12-20T02:38:01;4.67;;;3.20;;
43606;SDS011;29197;44.788;10.366;2023-12-20T02:40:52;4.57;;;2.97;;
43606;SDS011;29197;44.788;10.366;2023-12-20T02:43:41;4.53;;;3.00;;
43606;SDS011;29197;44.788;10.366;2023-12-20T02:46:29;6.23;;;3.27;;
43606;SDS011;29197;44.788;10.366;2023-12-20T02:49:18;7.37;;;3.90;;
43606;SDS011;29197;44.788;10.366;2023-12-20T02:52:07;5.73;;;3.70;;
43606;SDS011;29197;44.788;10.366;2023-12-20T02:54:56;5.43;;;3.60;;
43606;SDS011;29197;44.788;10.366;2023-12-20T02:57:47;6.10;;;3.37;;
43606;SDS011;29197;44.788;10.366;2023-12-20T03:00:36;6.67;;;3.57;;
43606;SDS011;29197;44.788;10.366;2023-12-20T03:03:25;8.90;;;3.60;;
43606;SDS011;29197;44.788;10.366;2023-12-20T03:06:15;5.10;;;3.03;;
43606;SDS011;29197;44.788;10.366;2023-12-20T03:09:04;5.17;;;3.70;;
43606;SDS011;29197;44.788;10.366;2023-12-20T03:11:54;4.83;;;3.30;;
43606;SDS011;29197;44.788;10.366;2023-12-20T03:14:44;5.60;;;3.73;;
43606;SDS011;29197;44.788;10.366;2023-12-20T03:17:33;8.70;;;4.10;;
43606;SDS011;29197;44.788;10.366;2023-12-20T03:20:22;6.57;;;3.20;;
43606;SDS011;29197;44.788;10.366;2023-12-20T03:23:12;5.83;;;3.70;;
43606;SDS011;29197;44.788;10.366;2023-12-20T03:26:01;5.43;;;3.40;;
43606;SDS011;29197;44.788;10.366;2023-12-20T03:28:50;8.93;;;3.43;;
43606;SDS011;29197;44.788;10.366;2023-12-20T03:31:41;7.50;;;4.00;;
43606;SDS011;29197;44.788;10.366;2023-12-20T03:34:30;5.13;;;3.43;;
43606;SDS011;29197;44.788;10.366;2023-12-20T03:37:19;7.03;;;3.70;;
43606;SDS011;29197;44.788;10.366;2023-12-20T03:40:08;8.93;;;4.23;;
43606;SDS011;29197;44.788;10.366;2023-12-20T03:42:57;5.37;;;3.73;;
43606;SDS011;29197;44.788;10.366;2023-12-20T03:45:46;6.20;;;3.57;;
43606;SDS011;29197;44.788;10.366;2023-12-20T03:48:36;5.37;;;3.47;;
43606;SDS011;29197;44.788;10.366;2023-12-20T03:51:25;4.33;;;3.30;;
43606;SDS011;29197;44.788;10.366;2023-12-20T03:54:14;5.57;;;3.50;;
43606;SDS011;29197;44.788;10.366;2023-12-20T03:57:03;5.60;;;3.43;;
43606;SDS011;29197;44.788;10.366;2023-12-20T03:59:52;7.23;;;3.70;;
43606;SDS011;29197;44.788;10.366;2023-12-20T04:02:41;5.57;;;3.80;;
43606;SDS011;29197;44.788;10.366;2023-12-20T04:05:32;7.37;;;3.60;;
43606;SDS011;29197;44.788;10.366;2023-12-20T04:08:21;5.30;;;3.63;;
43606;SDS011;29197;44.788;10.366;2023-12-20T04:11:09;6.13;;;3.53;;
43606;SDS011;29197;44.788;10.366;2023-12-20T04:13:58;6.53;;;3.63;;
43606;SDS011;29197;44.788;10.366;2023-12-20T04:16:47;7.10;;;3.77;;
43606;SDS011;29197;44.788;10.366;2023-12-20T04:19:36;6.13;;;4.00;;
43606;SDS011;29197;44.788;10.366;2023-12-20T04:22:27;5.27;;;4.00;;
43606;SDS011;29197;44.788;10.366;2023-12-20T04:25:16;5.73;;;3.97;;
43606;SDS011;29197;44.788;10.366;2023-12-20T04:28:05;6.97;;;3.77;;
43606;SDS011;29197;44.788;10.366;2023-12-20T04:30:54;5.33;;;3.67;;
43606;SDS011;29197;44.788;10.366;2023-12-20T04:33:43;6.27;;;4.13;;
43606;SDS011;29197;44.788;10.366;2023-12-20T04:36:31;9.20;;;4.50;;
43606;SDS011;29197;44.788;10.366;2023-12-20T04:39:22;6.90;;;4.60;;
43606;SDS011;29197;44.788;10.366;2023-12-20T04:42:11;8.63;;;4.63;;
43606;SDS011;29197;44.788;10.366;2023-12-20T04:45:00;7.97;;;4.47;;
43606;SDS011;29197;44.788;10.366;2023-12-20T04:47:49;8.17;;;4.70;;
43606;SDS011;29197;44.788;10.366;2023-12-20T04:50:38;7.23;;;4.40;;
43606;SDS011;29197;44.788;10.366;2023-12-20T04:53:27;8.73;;;4.23;;
43606;SDS011;29197;44.788;10.366;2023-12-20T04:56:17;6.87;;;4.17;;
43606;SDS011;29197;44.788;10.366;2023-12-20T04:59:06;8.03;;;4.50;;
43606;SDS011;29197;44.788;10.366;2023-12-20T05:01:55;6.73;;;4.17;;
43606;SDS011;29197;44.788;10.366;2023-12-20T05:04:45;7.90;;;4.57;;
43606;SDS011;29197;44.788;10.366;2023-12-20T05:07:34;9.27;;;4.73;;
43606;SDS011;29197;44.788;10.366;2023-12-20T05:10:23;8.30;;;4.97;;
43606;SDS011;29197;44.788;10.366;2023-12-20T05:13:15;7.55;;;5.15;;
43606;SDS011;29197;44.788;10.366;2023-12-20T05:16:04;7.87;;;5.30;;
43606;SDS011;29197;44.788;10.366;2023-12-20T05:18:53;13.87;;;5.87;;
43606;SDS011;29197;44.788;10.366;2023-12-20T05:21:42;11.00;;;6.30;;
43606;SDS011;29197;44.788;10.366;2023-12-20T05:24:31;9.97;;;6.20;;
43606;SDS011;29197;44.788;10.366;2023-12-20T05:27:20;11.47;;;6.47;;
43606;SDS011;29197;44.788;10.366;2023-12-20T05:30:11;9.13;;;5.97;;
43606;SDS011;29197;44.788;10.366;2023-12-20T05:33:00;10.93;;;6.23;;
43606;SDS011;29197;44.788;10.366;2023-12-20T05:35:49;11.47;;;6.90;;
43606;SDS011;29197;44.788;10.366;2023-12-20T05:38:38;8.80;;;6.07;;
43606;SDS011;29197;44.788;10.366;2023-12-20T05:41:27;9.43;;;5.30;;
43606;SDS011;29197;44.788;10.366;2023-12-20T05:44:16;9.60;;;5.57;;
43606;SDS011;29197;44.788;10.366;2023-12-20T05:47:07;10.43;;;6.30;;
43606;SDS011;29197;44.788;10.366;2023-12-20T05:49:56;10.93;;;5.63;;
43606;SDS011;29197;44.788;10.366;2023-12-20T05:52:45;7.60;;;5.10;;
43606;SDS011;29197;44.788;10.366;2023-12-20T05:55:34;9.83;;;5.47;;
43606;SDS011;29197;44.788;10.366;2023-12-20T05:58:23;9.93;;;5.47;;
43606;SDS011;29197;44.788;10.366;2023-12-20T06:01:14;11.73;;;5.70;;
43606;SDS011;29197;44.788;10.366;2023-12-20T06:04:05;14.47;;;5.90;;
43606;SDS011;29197;44.788;10.366;2023-12-20T06:06:54;11.40;;;5.73;;
43606;SDS011;29197;44.788;10.366;2023-12-20T06:09:43;9.17;;;5.90;;
43606;SDS011;29197;44.788;10.366;2023-12-20T06:12:32;11.33;;;6.70;;
43606;SDS011;29197;44.788;10.366;2023-12-20T06:15:22;8.27;;;5.50;;
43606;SDS011;29197;44.788;10.366;2023-12-20T06:18:11;9.17;;;5.37;;
43606;SDS011;29197;44.788;10.366;2023-12-20T06:21:02;8.57;;;5.77;;
43606;SDS011;29197;44.788;10.366;2023-12-20T06:23:51;11.53;;;6.37;;
43606;SDS011;29197;44.788;10.366;2023-12-20T06:26:40;8.47;;;5.80;;
43606;SDS011;29197;44.788;10.366;2023-12-20T06:29:29;8.43;;;5.57;;
43606;SDS011;29197;44.788;10.366;2023-12-20T06:32:18;8.60;;;5.57;;
43606;SDS011;29197;44.788;10.366;2023-12-20T06:35:08;8.63;;;5.43;;
43606;SDS011;29197;44.788;10.366;2023-12-20T06:37:58;13.57;;;6.57;;
43606;SDS011;29197;44.788;10.366;2023-12-20T06:40:48;9.57;;;5.10;;
43606;SDS011;29197;44.788;10.366;2023-12-20T06:43:37;11.10;;;5.47;;
43606;SDS011;29197;44.788;10.366;2023-12-20T06:46:35;10.47;;;6.60;;
43606;SDS011;29197;44.788;10.366;2023-12-20T06:49:24;9.87;;;5.73;;
43606;SDS011;29197;44.788;10.366;2023-12-20T06:52:13;14.27;;;6.10;;
43606;SDS011;29197;44.788;10.366;2023-12-20T06:55:04;10.83;;;5.83;;
43606;SDS011;29197;44.788;10.366;2023-12-20T06:57:54;9.40;;;5.50;;
43606;SDS011;29197;44.788;10.366;2023-12-20T07:00:43;9.60;;;6.60;;
43606;SDS011;29197;44.788;10.366;2023-12-20T07:03:32;8.93;;;5.03;;
43606;SDS011;29197;44.788;10.366;2023-12-20T07:06:20;11.07;;;6.53;;
43606;SDS011;29197;44.788;10.366;2023-12-20T07:09:12;10.57;;;6.13;;
43606;SDS011;29197;44.788;10.366;2023-12-20T07:12:04;12.70;;;6.10;;
43606;SDS011;29197;44.788;10.366;2023-12-20T07:14:52;10.53;;;5.50;;
43606;SDS011;29197;44.788;10.366;2023-12-20T07:17:42;11.77;;;5.57;;
43606;SDS011;29197;44.788;10.366;2023-12-20T07:20:32;11.30;;;6.10;;
43606;SDS011;29197;44.788;10.366;2023-12-20T07:23:21;13.63;;;6.90;;
43606;SDS011;29197;44.788;10.366;2023-12-20T07:26:09;11.63;;;6.00;;
43606;SDS011;29197;44.788;10.366;2023-12-20T07:29:00;9.97;;;5.63;;
43606;SDS011;29197;44.788;10.366;2023-12-20T07:31:50;11.67;;;6.40;;
43606;SDS011;29197;44.788;10.366;2023-12-20T07:34:40;12.67;;;6.03;;
43606;SDS011;29197;44.788;10.366;2023-12-20T07:37:29;9.60;;;6.80;;
43606;SDS011;29197;44.788;10.366;2023-12-20T07:40:18;13.10;;;6.07;;
43606;SDS011;29197;44.788;10.366;2023-12-20T07:43:07;10.87;;;6.47;;
43606;SDS011;29197;44.788;10.366;2023-12-20T07:46:01;11.07;;;6.43;;
43606;SDS011;29197;44.788;10.366;2023-12-20T07:48:52;12.57;;;7.30;;
43606;SDS011;29197;44.788;10.366;2023-12-20T07:51:41;16.67;;;9.17;;
43606;SDS011;29197;44.788;10.366;2023-12-20T07:54:30;12.47;;;6.73;;
43606;SDS011;29197;44.788;10.366;2023-12-20T07:57:19;11.77;;;6.77;;
43606;SDS011;29197;44.788;10.366;2023-12-20T08:00:09;14.27;;;7.77;;
43606;SDS011;29197;44.788;10.366;2023-12-20T08:02:59;14.97;;;7.67;;
43606;SDS011;29197;44.788;10.366;2023-12-20T08:05:50;10.83;;;7.00;;
43606;SDS011;29197;44.788;10.366;2023-12-20T08:08:39;17.77;;;7.33;;
43606;SDS011;29197;44.788;10.366;2023-12-20T08:11:30;12.97;;;7.30;;
43606;SDS011;29197;44.788;10.366;2023-12-20T08:14:19;17.13;;;7.33;;
43606;SDS011;29197;44.788;10.366;2023-12-20T08:17:08;18.03;;;9.00;;
43606;SDS011;29197;44.788;10.366;2023-12-20T08:19:59;21.47;;;8.03;;
43606;SDS011;29197;44.788;10.366;2023-12-20T08:22:48;11.80;;;6.60;;
43606;SDS011;29197;44.788;10.366;2023-12-20T08:25:37;15.07;;;7.70;;
43606;SDS011;29197;44.788;10.366;2023-12-20T08:28:26;16.77;;;7.77;;
43606;SDS011;29197;44.788;10.366;2023-12-20T08:31:15;14.67;;;6.83;;
43606;SDS011;29197;44.788;10.366;2023-12-20T08:34:04;16.53;;;7.63;;
43606;SDS011;29197;44.788;10.366;2023-12-20T08:36:56;13.93;;;7.73;;
43606;SDS011;29197;44.788;10.366;2023-12-20T08:39:45;13.80;;;7.80;;
43606;SDS011;29197;44.788;10.366;2023-12-20T08:42:34;26.57;;;13.13;;
43606;SDS011;29197;44.788;10.366;2023-12-20T08:45:23;25.40;;;12.43;;
43606;SDS011;29197;44.788;10.366;2023-12-20T08:48:12;18.83;;;9.30;;
43606;SDS011;29197;44.788;10.366;2023-12-20T08:51:02;21.10;;;8.20;;
43606;SDS011;29197;44.788;10.366;2023-12-20T08:53:52;13.90;;;8.57;;
43606;SDS011;29197;44.788;10.366;2023-12-20T08:56:41;18.13;;;8.73;;
43606;SDS011;29197;44.788;10.366;2023-12-20T08:59:30;13.50;;;8.00;;
43606;SDS011;29197;44.788;10.366;2023-12-20T09:02:19;17.87;;;9.43;;
43606;SDS011;29197;44.788;10.366;2023-12-20T09:05:08;15.63;;;8.43;;
43606;SDS011;29197;44.788;10.366;2023-12-20T09:07:57;14.50;;;7.40;;
43606;SDS011;29197;44.788;10.366;2023-12-20T09:10:47;15.33;;;8.37;;
43606;SDS011;29197;44.788;10.366;2023-12-20T09:13:36;14.13;;;7.83;;
43606;SDS011;29197;44.788;10.366;2023-12-20T09:16:25;11.37;;;6.77;;
43606;SDS011;29197;44.788;10.366;2023-12-20T09:19:14;12.97;;;7.90;;
43606;SDS011;29197;44.788;10.366;2023-12-20T09:22:03;14.90;;;8.57;;
43606;SDS011;29197;44.788;10.366;2023-12-20T09:24:52;15.60;;;8.97;;
43606;SDS011;29197;44.788;10.366;2023-12-20T09:27:43;14.83;;;8.03;;
43606;SDS011;29197;44.788;10.366;2023-12-20T09:30:32;14.17;;;7.90;;
43606;SDS011;29197;44.788;10.366;2023-12-20T09:33:22;16.40;;;7.70;;
43606;SDS011;29197;44.788;10.366;2023-12-20T09:36:11;15.77;;;8.47;;
43606;SDS011;29197;44.788;10.366;2023-12-20T09:39:01;19.57;;;7.80;;
43606;SDS011;29197;44.788;10.366;2023-12-20T09:41:52;15.23;;;9.13;;
43606;SDS011;29197;44.788;10.366;2023-12-20T09:44:44;16.37;;;8.60;;
43606;SDS011;29197;44.788;10.366;2023-12-20T09:47:33;17.47;;;8.67;;
43606;SDS011;29197;44.788;10.366;2023-12-20T09:50:23;18.97;;;9.53;;
43606;SDS011;29197;44.788;10.366;2023-12-20T09:53:14;19.43;;;10.13;;
43606;SDS011;29197;44.788;10.366;2023-12-20T09:56:04;17.40;;;9.10;;
43606;SDS011;29197;44.788;10.366;2023-12-20T09:58:54;17.97;;;9.70;;
43606;SDS011;29197;44.788;10.366;2023-12-20T10:01:44;18.17;;;10.30;;
43606;SDS011;29197;44.788;10.366;2023-12-20T10:04:34;19.00;;;10.83;;
43606;SDS011;29197;44.788;10.366;2023-12-20T10:07:23;21.07;;;9.97;;
43606;SDS011;29197;44.788;10.366;2023-12-20T10:10:13;20.50;;;12.03;;
43606;SDS011;29197;44.788;10.366;2023-12-20T10:13:03;21.17;;;12.40;;
43606;SDS011;29197;44.788;10.366;2023-12-20T10:15:52;21.30;;;10.80;;
43606;SDS011;29197;44.788;10.366;2023-12-20T10:18:42;15.93;;;10.00;;
43606;SDS011;29197;44.788;10.366;2023-12-20T10:21:31;15.83;;;9.87;;
43606;SDS011;29197;44.788;10.366;2023-12-20T10:24:20;23.80;;;9.40;;
43606;SDS011;29197;44.788;10.366;2023-12-20T10:27:12;17.53;;;8.87;;
43606;SDS011;29197;44.788;10.366;2023-12-20T10:30:00;15.30;;;9.80;;
43606;SDS011;29197;44.788;10.366;2023-12-20T10:32:49;18.40;;;10.50;;
43606;SDS011;29197;44.788;10.366;2023-12-20T10:35:40;19.23;;;9.13;;
43606;SDS011;29197;44.788;10.366;2023-12-20T10:38:33;18.30;;;10.17;;
43606;SDS011;29197;44.788;10.366;2023-12-20T10:41:24;16.00;;;8.57;;
43606;SDS011;29197;44.788;10.366;2023-12-20T10:44:14;17.67;;;11.17;;
43606;SDS011;29197;44.788;10.366;2023-12-20T10:47:04;22.43;;;11.73;;
43606;SDS011;29197;44.788;10.366;2023-12-20T10:49:53;25.80;;;13.17;;
43606;SDS011;29197;44.788;10.366;2023-12-20T10:55:33;18.63;;;11.03;;
43606;SDS011;29197;44.788;10.366;2023-12-20T10:58:22;19.27;;;11.23;;
43606;SDS011;29197;44.788;10.366;2023-12-20T11:01:13;16.73;;;9.57;;
43606;SDS011;29197;44.788;10.366;2023-12-20T11:04:02;22.53;;;10.37;;
43606;SDS011;29197;44.788;10.366;2023-12-20T11:06:56;15.73;;;9.57;;
43606;SDS011;29197;44.788;10.366;2023-12-20T11:09:49;15.80;;;9.23;;
43606;SDS011;29197;44.788;10.366;2023-12-20T11:12:43;19.07;;;12.43;;
43606;SDS011;29197;44.788;10.366;2023-12-20T11:15:35;19.37;;;11.67;;
43606;SDS011;29197;44.788;10.366;2023-12-20T11:18:28;24.03;;;11.90;;
43606;SDS011;29197;44.788;10.366;2023-12-20T11:21:17;20.87;;;9.63;;
43606;SDS011;29197;44.788;10.366;2023-12-20T11:24:06;20.60;;;9.57;;
43606;SDS011;29197;44.788;10.366;2023-12-20T11:26:55;18.93;;;10.23;;
43606;SDS011;29197;44.788;10.366;2023-12-20T11:29:50;17.53;;;8.70;;
43606;SDS011;29197;44.788;10.366;2023-12-20T11:32:39;20.20;;;9.07;;
43606;SDS011;29197;44.788;10.366;2023-12-20T11:35:29;21.47;;;8.70;;
43606;SDS011;29197;44.788;10.366;2023-12-20T11:38:19;18.03;;;9.67;;
43606;SDS011;29197;44.788;10.366;2023-12-20T11:41:08;15.13;;;9.50;;
43606;SDS011;29197;44.788;10.366;2023-12-20T11:43:59;21.77;;;11.47;;
43606;SDS011;29197;44.788;10.366;2023-12-20T11:46:51;15.17;;;8.87;;
43606;SDS011;29197;44.788;10.366;2023-12-20T11:49:40;16.60;;;9.43;;
43606;SDS011;29197;44.788;10.366;2023-12-20T11:52:29;28.47;;;12.20;;
43606;SDS011;29197;44.788;10.366;2023-12-20T11:55:18;19.13;;;10.87;;
43606;SDS011;29197;44.788;10.366;2023-12-20T11:58:07;21.30;;;12.10;;
43606;SDS011;29197;44.788;10.366;2023-12-20T12:00:56;15.70;;;10.77;;
43606;SDS011;29197;44.788;10.366;2023-12-20T12:03:46;23.70;;;13.20;;
43606;SDS011;29197;44.788;10.366;2023-12-20T12:06:35;18.07;;;10.73;;
43606;SDS011;29197;44.788;10.366;2023-12-20T12:09:24;18.93;;;9.33;;
43606;SDS011;29197;44.788;10.366;2023-12-20T12:12:13;15.70;;;9.57;;
43606;SDS011;29197;44.788;10.366;2023-12-20T12:15:02;17.30;;;10.17;;
43606;SDS011;29197;44.788;10.366;2023-12-20T12:17:54;14.17;;;9.00;;
43606;SDS011;29197;44.788;10.366;2023-12-20T12:20:45;15.93;;;9.43;;
43606;SDS011;29197;44.788;10.366;2023-12-20T12:23:34;16.63;;;10.60;;
43606;SDS011;29197;44.788;10.366;2023-12-20T12:26:24;17.17;;;10.23;;
43606;SDS011;29197;44.788;10.366;2023-12-20T12:29:13;16.43;;;10.57;;
43606;SDS011;29197;44.788;10.366;2023-12-20T12:32:04;18.80;;;10.77;;
43606;SDS011;29197;44.788;10.366;2023-12-20T12:34:54;15.47;;;8.57;;
43606;SDS011;29197;44.788;10.366;2023-12-20T12:37:44;12.43;;;8.97;;
43606;SDS011;29197;44.788;10.366;2023-12-20T12:40:34;16.33;;;9.10;;
43606;SDS011;29197;44.788;10.366;2023-12-20T12:43:23;15.03;;;8.57;;
43606;SDS011;29197;44.788;10.366;2023-12-20T12:46:12;14.77;;;8.93;;
43606;SDS011;29197;44.788;10.366;2023-12-20T12:49:01;15.43;;;9.40;;
43606;SDS011;29197;44.788;10.366;2023-12-20T12:51:50;14.50;;;9.17;;
43606;SDS011;29197;44.788;10.366;2023-12-20T12:54:42;14.90;;;9.07;;
43606;SDS011;29197;44.788;10.366;2023-12-20T12:57:31;17.33;;;9.63;;
43606;SDS011;29197;44.788;10.366;2023-12-20T13:00:20;18.77;;;10.03;;
43606;SDS011;29197;44.788;10.366;2023-12-20T13:03:11;14.80;;;9.63;;
43606;SDS011;29197;44.788;10.366;2023-12-20T13:05:59;17.77;;;9.93;;
43606;SDS011;29197;44.788;10.366;2023-12-20T13:08:49;36.00;;;19.07;;
43606;SDS011;29197;44.788;10.366;2023-12-20T13:11:39;31.27;;;16.43;;
43606;SDS011;29197;44.788;10.366;2023-12-20T13:14:28;32.30;;;14.83;;
43606;SDS011;29197;44.788;10.366;2023-12-20T13:17:17;23.43;;;12.43;;
43606;SDS011;29197;44.788;10.366;2023-12-20T13:20:06;35.23;;;17.70;;
43606;SDS011;29197;44.788;10.366;2023-12-20T13:22:55;27.20;;;14.43;;
43606;SDS011;29197;44.788;10.366;2023-12-20T13:25:44;23.40;;;12.90;;
43606;SDS011;29197;44.788;10.366;2023-12-20T13:28:34;20.87;;;12.33;;
43606;SDS011;29197;44.788;10.366;2023-12-20T13:31:23;21.83;;;10.83;;
43606;SDS011;29197;44.788;10.366;2023-12-20T13:34:12;18.57;;;10.80;;
43606;SDS011;29197;44.788;10.366;2023-12-20T13:37:04;18.93;;;10.77;;
43606;SDS011;29197;44.788;10.366;2023-12-20T13:39:53;19.07;;;11.50;;
43606;SDS011;29197;44.788;10.366;2023-12-20T13:42:41;23.50;;;11.97;;
43606;SDS011;29197;44.788;10.366;2023-12-20T13:45:31;15.40;;;10.33;;
43606;SDS011;29197;44.788;10.366;2023-12-20T13:48:20;19.83;;;9.60;;
43606;SDS011;29197;44.788;10.366;2023-12-20T13:51:10;18.33;;;9.90;;
43606;SDS011;29197;44.788;10.366;2023-12-20T13:53:58;21.90;;;9.73;;
43606;SDS011;29197;44.788;10.366;2023-12-20T13:56:47;20.80;;;11.50;;
43606;SDS011;29197;44.788;10.366;2023-12-20T13:59:54;18.67;;;11.50;;
43606;SDS011;29197;44.788;10.366;2023-12-20T14:02:45;18.17;;;10.20;;
43606;SDS011;29197;44.788;10.366;2023-12-20T14:05:35;18.83;;;11.03;;
43606;SDS011;29197;44.788;10.366;2023-12-20T14:08:24;21.77;;;11.13;;
43606;SDS011;29197;44.788;10.366;2023-12-20T14:11:13;17.13;;;10.43;;
43606;SDS011;29197;44.788;10.366;2023-12-20T14:14:02;20.83;;;11.10;;
43606;SDS011;29197;44.788;10.366;2023-12-20T14:16:52;13.43;;;9.27;;
43606;SDS011;29197;44.788;10.366;2023-12-20T14:19:42;45.50;;;19.40;;
43606;SDS011;29197;44.788;10.366;2023-12-20T14:22:31;37.47;;;17.33;;
43606;SDS011;29197;44.788;10.366;2023-12-20T14:25:20;34.20;;;15.90;;
43606;SDS011;29197;44.788;10.366;2023-12-20T14:28:10;31.17;;;15.67;;
43606;SDS011;29197;44.788;10.366;2023-12-20T14:31:01;33.90;;;15.33;;
43606;SDS011;29197;44.788;10.366;2023-12-20T14:33:50;32.93;;;15.50;;
43606;SDS011;29197;44.788;10.366;2023-12-20T14:36:41;35.50;;;16.87;;
43606;SDS011;29197;44.788;10.366;2023-12-20T14:39:30;26.93;;;15.10;;
43606;SDS011;29197;44.788;10.366;2023-12-20T14:42:19;27.10;;;13.10;;
43606;SDS011;29197;44.788;10.366;2023-12-20T14:45:09;19.90;;;12.07;;
43606;SDS011;29197;44.788;10.366;2023-12-20T14:47:58;17.50;;;10.90;;
43606;SDS011;29197;44.788;10.366;2023-12-20T14:50:47;16.60;;;10.30;;
43606;SDS011;29197;44.788;10.366;2023-12-20T14:53:38;18.13;;;10.30;;
43606;SDS011;29197;44.788;10.366;2023-12-20T14:56:29;15.73;;;10.57;;
43606;SDS011;29197;44.788;10.366;2023-12-20T14:59:17;19.67;;;10.90;;
43606;SDS011;29197;44.788;10.366;2023-12-20T15:02:06;16.60;;;10.20;;
43606;SDS011;29197;44.788;10.366;2023-12-20T15:04:55;19.00;;;11.50;;
43606;SDS011;29197;44.788;10.366;2023-12-20T15:07:44;20.67;;;11.93;;
43606;SDS011;29197;44.788;10.366;2023-12-20T15:10:35;21.57;;;12.73;;
43606;SDS011;29197;44.788;10.366;2023-12-20T15:13:24;20.67;;;11.67;;
43606;SDS011;29197;44.788;10.366;2023-12-20T15:16:13;20.47;;;12.17;;
43606;SDS011;29197;44.788;10.366;2023-12-20T15:19:02;20.53;;;12.27;;
43606;SDS011;29197;44.788;10.366;2023-12-20T15:21:51;17.97;;;11.60;;
43606;SDS011;29197;44.788;10.366;2023-12-20T15:24:40;19.83;;;11.83;;
43606;SDS011;29197;44.788;10.366;2023-12-20T15:27:32;20.90;;;12.10;;
43606;SDS011;29197;44.788;10.366;2023-12-20T15:30:22;19.57;;;12.10;;
43606;SDS011;29197;44.788;10.366;2023-12-20T15:33:11;22.43;;;13.00;;
43606;SDS011;29197;44.788;10.366;2023-12-20T15:36:00;22.47;;;13.40;;
43606;SDS011;29197;44.788;10.366;2023-12-20T15:38:49;24.07;;;13.60;;
43606;SDS011;29197;44.788;10.366;2023-12-20T15:41:38;23.00;;;12.87;;
43606;SDS011;29197;44.788;10.366;2023-12-20T15:44:28;22.97;;;12.90;;
43606;SDS011;29197;44.788;10.366;2023-12-20T15:47:17;22.03;;;13.10;;
43606;SDS011;29197;44.788;10.366;2023-12-20T15:50:06;25.17;;;12.60;;
43606;SDS011;29197;44.788;10.366;2023-12-20T15:52:55;22.63;;;12.40;;
43606;SDS011;29197;44.788;10.366;2023-12-20T15:55:44;22.87;;;13.10;;
43606;SDS011;29197;44.788;10.366;2023-12-20T15:58:33;28.87;;;15.90;;
43606;SDS011;29197;44.788;10.366;2023-12-20T16:01:23;27.77;;;16.00;;
43606;SDS011;29197;44.788;10.366;2023-12-20T16:04:12;26.93;;;15.77;;
43606;SDS011;29197;44.788;10.366;2023-12-20T16:07:01;27.80;;;15.20;;
43606;SDS011;29197;44.788;10.366;2023-12-20T16:09:50;25.87;;;15.60;;
43606;SDS011;29197;44.788;10.366;2023-12-20T16:12:39;23.30;;;15.27;;
43606;SDS011;29197;44.788;10.366;2023-12-20T16:15:28;22.57;;;14.10;;
43606;SDS011;29197;44.788;10.366;2023-12-20T16:18:18;23.53;;;12.47;;
43606;SDS011;29197;44.788;10.366;2023-12-20T16:21:07;25.80;;;15.83;;
43606;SDS011;29197;44.788;10.366;2023-12-20T16:23:56;28.17;;;16.90;;
43606;SDS011;29197;44.788;10.366;2023-12-20T16:26:45;27.47;;;15.50;;
43606;SDS011;29197;44.788;10.366;2023-12-20T16:29:33;23.53;;;15.17;;
43606;SDS011;29197;44.788;10.366;2023-12-20T16:32:22;27.23;;;15.77;;
43606;SDS011;29197;44.788;10.366;2023-12-20T16:35:12;25.77;;;15.10;;
43606;SDS011;29197;44.788;10.366;2023-12-20T16:38:01;32.57;;;16.07;;